Time;durP1;ratioP1;P1;durP2;ratioP2;P2;SDS_P1;SDS_P2;PMS_P1;PMS_P2;Temp;Humidity;BMP_temperature;BMP_pressure;BME280_temperature;BME280_humidity;BME280_pressure;Samples;Min_cycle;Max_cycle;Signal;HPM_P1;HPM_P2
2023/03/12 00:01:12;;;;;;;0.60;0.60;;;;;;;7.72;60.89;95756.66;4986701;28;20081;-61
2023/03/12 00:03:39;;;;;;;0.60;0.60;;;;;;;7.77;61.50;95738.16;5001709;28;20050;-67
2023/03/12 00:06:06;;;;;;;0.60;0.60;;;;;;;7.02;61.33;95626.69;4986452;28;20046;-61
2023/03/12 00:08:37;;;;;;;0.70;0.70;;;;;;;7.31;59.34;95678.03;4986589;28;20509;-60
2023/03/12 00:11:16;;;;;;;0.60;0.60;;;;;;;7.69;62.56;95754.69;4986311;28;20123;-60
2023/03/12 00:13:43;;;;;;;0.60;0.60;;;;;;;7.44;55.58;95741.88;4986600;28;20057;-67
2023/03/12 00:16:13;;;;;;;0.60;0.60;;;;;;;7.57;55.06;95763.22;4986609;28;20054;-68
2023/03/12 00:18:40;;;;;;;0.57;0.57;;;;;;;7.13;51.69;95703.84;4986495;28;20403;-68
2023/03/12 00:21:07;;;;;;;0.55;0.55;;;;;;;7.54;53.03;95757.69;4986401;28;20053;-68
2023/03/12 00:23:34;;;;;;;0.60;0.60;;;;;;;7.53;54.11;95753.34;4986483;28;20571;-61
2023/03/12 00:26:11;;;;;;;0.60;0.60;;;;;;;7.46;55.39;95762.34;4986419;28;20047;-68
2023/03/12 00:28:38;;;;;;;0.60;0.60;;;;;;;7.41;56.14;95748.94;4984935;28;20050;-61
2023/03/12 00:31:19;;;;;;;0.63;0.63;;;;;;;7.41;51.27;95770.19;4988724;28;20125;-68
2023/03/12 00:33:50;;;;;;;0.60;0.60;;;;;;;7.29;52.18;95751.97;5024007;28;20053;-68
2023/03/12 00:36:18;;;;;;;0.60;0.60;;;;;;;7.29;54.40;95763.00;5025493;28;20088;-61
2023/03/12 00:38:45;;;;;;;0.60;0.60;;;;;;;7.15;53.97;95751.84;5025432;28;20085;-67
2023/03/12 00:41:11;;;;;;;0.60;0.60;;;;;;;7.15;52.95;95754.63;5025173;28;20509;-63
2023/03/12 00:43:38;;;;;;;0.60;0.60;;;;;;;6.93;56.02;95739.06;5040358;28;20574;-60
2023/03/12 00:46:05;;;;;;;0.60;0.60;;;;;;;7.06;53.71;95754.16;5024912;28;20049;-67
2023/03/12 00:48:32;;;;;;;0.60;0.60;;;;;;;6.94;54.22;95757.16;5040647;28;20050;-67
2023/03/12 00:50:58;;;;;;;0.50;0.50;;;;;;;6.88;53.53;95753.16;5024877;28;20099;-61
2023/03/12 00:53:25;;;;;;;0.60;0.60;;;;;;;6.83;58.24;95750.75;5024905;28;20049;-68
2023/03/12 00:55:52;;;;;;;0.50;0.50;;;;;;;6.29;58.80;95731.31;5025175;28;20068;-61
2023/03/12 00:58:18;;;;;;;0.60;0.60;;;;;;;6.03;53.15;95682.69;5024961;28;20053;-68
2023/03/12 01:00:45;;;;;;;0.50;0.50;;;;;;;6.11;58.40;95681.59;5024886;28;20106;-61
2023/03/12 01:03:12;;;;;;;0.50;0.50;;;;;;;6.43;48.24;95725.97;5024606;28;20064;-66
2023/03/12 01:05:39;;;;;;;0.50;0.50;;;;;;;6.57;45.24;95698.63;5023274;28;20084;-61
2023/03/12 01:08:07;;;;;;;0.55;0.55;;;;;;;6.39;42.39;95664.63;5023563;28;20049;-60
2023/03/12 01:10:35;;;;;;;0.50;0.50;;;;;;;6.82;44.30;95727.16;5023129;28;20131;-62
2023/03/12 01:13:02;;;;;;;0.60;0.60;;;;;;;6.87;43.24;95715.03;5023090;28;20148;-62
2023/03/12 01:15:29;;;;;;;0.50;0.50;;;;;;;6.93;42.25;95717.06;5023069;28;20064;-67
2023/03/12 01:17:56;;;;;;;0.50;0.50;;;;;;;6.92;41.56;95704.47;5021957;28;20084;-67
2023/03/12 01:20:22;;;;;;;0.57;0.57;;;;;;;7.01;41.26;95707.69;5038942;28;20081;-62
2023/03/12 01:22:50;;;;;;;0.60;0.60;;;;;;;6.58;40.17;95672.69;5024226;28;20054;-67
2023/03/12 01:25:17;;;;;;;0.60;0.60;;;;;;;6.93;39.68;95700.53;5024132;28;20091;-67
2023/03/12 01:27:44;;;;;;;0.60;0.60;;;;;;;7.12;39.40;95725.09;5018343;28;20054;-62
2023/03/12 01:30:11;;;;;;;0.60;0.60;;;;;;;7.17;38.95;95738.50;4984843;28;20077;-63
2023/03/12 01:32:38;;;;;;;0.60;0.60;;;;;;;7.16;39.89;95734.16;5011491;28;20095;-67
2023/03/12 01:35:06;;;;;;;0.60;0.60;;;;;;;6.61;41.18;95646.38;5023701;28;20568;-67
2023/03/12 01:37:32;;;;;;;0.60;0.60;;;;;;;6.58;40.86;95650.66;5024201;28;20061;-67
2023/03/12 01:40:00;;;;;;;0.60;0.60;;;;;;;6.68;42.21;95644.50;5039010;28;20053;-66
2023/03/12 01:42:26;;;;;;;0.50;0.50;;;;;;;7.17;42.04;95719.25;5039106;28;20053;-68
2023/03/12 01:44:58;;;;;;;0.60;0.60;;;;;;;7.10;41.94;95710.09;5024484;28;20056;-60
2023/03/12 01:47:26;;;;;;;0.60;0.60;;;;;;;7.17;41.71;95710.19;5024243;28;20049;-68
2023/03/12 01:49:54;;;;;;;0.60;0.60;;;;;;;7.26;40.97;95697.66;5024466;28;20140;-61
2023/03/12 01:52:26;;;;;;;0.70;0.70;;;;;;;6.82;41.55;95655.63;5024366;28;20140;-68
2023/03/12 01:55:02;;;;;;;0.60;0.60;;;;;;;7.27;41.04;95718.53;5024407;28;20426;-68
2023/03/12 01:57:31;;;;;;;0.60;0.60;;;;;;;7.04;41.95;95715.19;5039015;28;20140;-68
2023/03/12 02:00:08;;;;;;;0.52;0.52;;;;;;;6.95;41.70;95722.19;5038889;28;20115;-68
2023/03/12 02:02:35;;;;;;;0.60;0.60;;;;;;;6.75;39.86;95727.09;5038724;28;20490;-60
2023/03/12 02:05:12;;;;;;;0.50;0.50;;;;;;;7.01;40.03;95724.22;5022163;28;20122;-68
2023/03/12 02:07:39;;;;;;;0.60;0.60;;;;;;;7.20;41.60;95739.69;5018492;28;20065;-60
2023/03/12 02:10:06;;;;;;;0.60;0.60;;;;;;;7.12;40.66;95708.56;4984228;28;20685;-68
2023/03/12 02:12:32;;;;;;;0.60;0.60;;;;;;;6.76;39.41;95657.13;4984974;28;20096;-68
2023/03/12 02:14:59;;;;;;;0.60;0.60;;;;;;;7.44;40.20;95750.94;4983127;28;20050;-61
2023/03/12 02:17:26;;;;;;;0.60;0.60;;;;;;;7.24;41.01;95716.53;4984631;28;20054;-61
2023/03/12 02:20:11;;;;;;;0.60;0.60;;;;;;;7.28;41.13;95750.41;4984578;28;20057;-60
2023/03/12 02:22:41;;;;;;;0.60;0.60;;;;;;;7.25;40.90;95756.69;5001876;28;20491;-67
2023/03/12 02:25:29;;;;;;;0.60;0.60;;;;;;;7.38;40.57;95776.47;4988237;28;20506;-68
2023/03/12 02:28:00;;;;;;;0.60;0.60;;;;;;;7.22;38.79;95773.94;4988738;28;20271;-68
2023/03/12 02:30:29;;;;;;;0.60;0.60;;;;;;;6.85;37.37;95709.09;4988269;28;20081;-61
2023/03/12 02:32:58;;;;;;;0.60;0.60;;;;;;;7.24;37.46;95749.56;5012518;28;20049;-60
2023/03/12 02:35:25;;;;;;;0.60;0.60;;;;;;;6.55;37.69;95673.44;5027502;28;20056;-59
2023/03/12 02:37:54;;;;;;;0.60;0.60;;;;;;;6.96;39.02;95749.31;5043000;28;20069;-60
2023/03/12 02:40:30;;;;;;;0.52;0.52;;;;;;;6.75;41.41;95782.13;5027062;28;20061;-66
2023/03/12 02:42:57;;;;;;;0.50;0.50;;;;;;;6.66;41.43;95789.88;5027874;28;20478;-60
2023/03/12 02:45:25;;;;;;;0.50;0.50;;;;;;;6.52;41.47;95789.72;5027041;28;20049;-66
2023/03/12 02:47:52;;;;;;;0.60;0.60;;;;;;;5.70;42.38;95698.31;5025950;28;20079;-60
2023/03/12 02:50:18;;;;;;;0.60;0.60;;;;;;;6.47;41.27;95836.78;5027069;28;20049;-61
2023/03/12 02:52:45;;;;;;;0.50;0.50;;;;;;;6.29;42.15;95811.03;5027544;28;20053;-67
2023/03/12 02:55:12;;;;;;;0.60;0.60;;;;;;;6.02;42.18;95787.50;5027107;28;20081;-66
2023/03/12 02:57:39;;;;;;;0.50;0.50;;;;;;;6.63;43.96;95840.16;5027456;28;20129;-67
2023/03/12 03:00:16;;;;;;;0.57;0.57;;;;;;;5.95;42.91;95787.38;5027418;28;20085;-60
2023/03/12 03:02:43;;;;;;;0.50;0.50;;;;;;;5.88;42.56;95748.81;5026792;28;20574;-60
2023/03/12 03:05:11;;;;;;;0.60;0.60;;;;;;;6.70;40.81;95878.75;5026742;28;20051;-60
2023/03/12 03:07:38;;;;;;;0.50;0.50;;;;;;;6.47;41.56;95902.81;5027027;28;20131;-61
2023/03/12 03:10:05;;;;;;;0.60;0.60;;;;;;;6.67;38.00;95907.00;5025329;28;20071;-60
2023/03/12 03:12:36;;;;;;;0.50;0.50;;;;;;;6.74;36.58;95867.78;5027177;28;20059;-67
2023/03/12 03:15:04;;;;;;;0.50;0.50;;;;;;;6.63;36.52;95820.91;5026636;28;20049;-60
2023/03/12 03:17:30;;;;;;;0.70;0.70;;;;;;;5.78;39.11;95694.50;5026605;28;20504;-66
2023/03/12 03:19:57;;;;;;;0.50;0.50;;;;;;;6.75;37.37;95842.66;5041813;28;20065;-63
2023/03/12 03:22:23;;;;;;;0.50;0.50;;;;;;;6.55;38.78;95835.72;5041866;28;20064;-60
2023/03/12 03:24:52;;;;;;;0.50;0.50;;;;;;;6.52;37.92;95855.72;5026356;28;20045;-65
2023/03/12 03:27:19;;;;;;;0.50;0.50;;;;;;;6.51;38.35;95851.41;5027380;28;20050;-67
2023/03/12 03:29:45;;;;;;;0.52;0.52;;;;;;;6.48;38.78;95860.38;5026144;28;20057;-66
2023/03/12 03:32:12;;;;;;;0.60;0.60;;;;;;;6.46;39.44;95879.22;5021593;28;20061;-67
2023/03/12 03:34:39;;;;;;;0.50;0.50;;;;;;;5.86;40.36;95801.38;5006731;28;20062;-66
2023/03/12 03:37:06;;;;;;;0.50;0.50;;;;;;;6.31;40.60;95888.44;5021892;28;20551;-61
2023/03/12 03:39:33;;;;;;;0.50;0.50;;;;;;;6.37;41.24;95917.19;4986670;28;20113;-60
2023/03/12 03:42:00;;;;;;;0.50;0.50;;;;;;;5.66;42.22;95840.28;4986978;28;20058;-66
2023/03/12 03:44:26;;;;;;;0.50;0.50;;;;;;;6.22;42.38;95920.91;4986823;28;20046;-61
2023/03/12 03:46:54;;;;;;;0.50;0.50;;;;;;;6.20;41.63;95947.97;4986757;28;20054;-62
2023/03/12 03:49:21;;;;;;;0.60;0.60;;;;;;;6.17;40.58;95937.72;4986978;28;20113;-67
2023/03/12 03:51:48;;;;;;;0.50;0.50;;;;;;;6.22;39.09;95918.16;4987029;28;20595;-69
2023/03/12 03:54:15;;;;;;;0.50;0.50;;;;;;;6.34;40.83;95947.41;4985534;28;20050;-68
2023/03/12 03:56:42;;;;;;;0.60;0.60;;;;;;;6.32;39.87;95934.03;4986677;28;20755;-61
2023/03/12 03:59:08;;;;;;;0.50;0.50;;;;;;;5.90;39.33;95859.13;4986805;28;20090;-69
2023/03/12 04:01:35;;;;;;;0.50;0.50;;;;;;;6.39;39.88;95928.63;4987090;28;20115;-61
2023/03/12 04:04:03;;;;;;;0.55;0.55;;;;;;;5.98;38.06;95886.38;4986658;28;20582;-60
2023/03/12 04:06:30;;;;;;;0.60;0.60;;;;;;;6.36;37.32;95929.38;4986916;28;20066;-67
2023/03/12 04:08:57;;;;;;;0.50;0.50;;;;;;;6.13;37.77;95898.38;4987223;28;20081;-59
2023/03/12 04:11:24;;;;;;;0.57;0.57;;;;;;;6.21;38.27;95933.06;4986101;28;20058;-67
2023/03/12 04:13:51;;;;;;;0.45;0.45;;;;;;;6.03;39.66;95948.47;4985179;28;20050;-66
2023/03/12 04:16:18;;;;;;;0.50;0.50;;;;;;;5.44;39.87;95887.75;4986528;28;20053;-66
2023/03/12 04:18:44;;;;;;;0.50;0.50;;;;;;;5.98;38.75;95965.28;4984988;28;20067;-60
2023/03/12 04:21:13;;;;;;;0.52;0.52;;;;;;;6.04;40.43;95980.28;4986387;28;20141;-60
2023/03/12 04:23:40;;;;;;;0.50;0.50;;;;;;;5.79;41.06;95984.53;4986278;28;20326;-68
2023/03/12 04:26:07;;;;;;;0.50;0.50;;;;;;;5.83;41.72;95991.69;4986180;28;20366;-60
2023/03/12 04:28:34;;;;;;;0.50;0.50;;;;;;;5.86;41.13;96009.44;4987200;28;20490;-59
2023/03/12 04:31:04;;;;;;;0.50;0.50;;;;;;;5.90;41.96;96004.78;4985844;28;20493;-67
2023/03/12 04:33:33;;;;;;;0.50;0.50;;;;;;;6.01;43.12;96005.75;5015967;28;20140;-60
2023/03/12 04:36:00;;;;;;;0.50;0.50;;;;;;;5.91;41.88;95989.91;5025211;28;20080;-60
2023/03/12 04:38:27;;;;;;;0.50;0.50;;;;;;;5.96;42.10;96008.81;5025502;28;20055;-62
2023/03/12 04:41:02;;;;;;;0.60;0.60;;;;;;;5.96;38.98;95981.31;5024878;28;20092;-61
2023/03/12 04:43:30;;;;;;;0.50;0.50;;;;;;;6.14;40.19;96004.44;5025333;28;20060;-67
2023/03/12 04:45:57;;;;;;;0.50;0.50;;;;;;;5.28;43.06;95896.09;5024479;28;20082;-60
2023/03/12 04:48:24;;;;;;;0.50;0.50;;;;;;;6.03;42.85;96025.44;5025433;28;20119;-59
2023/03/12 04:50:51;;;;;;;0.50;0.50;;;;;;;5.78;43.48;96024.16;5025116;28;20136;-60
2023/03/12 04:53:18;;;;;;;0.50;0.50;;;;;;;5.82;45.40;96020.34;5025406;28;20166;-68
2023/03/12 04:55:44;;;;;;;0.50;0.50;;;;;;;5.47;44.87;96013.38;5025097;28;20403;-66
2023/03/12 04:58:11;;;;;;;0.50;0.50;;;;;;;5.42;45.88;96039.16;5023627;28;20522;-61
2023/03/12 05:00:39;;;;;;;0.50;0.50;;;;;;;5.35;46.13;96038.22;5025354;28;20139;-59
2023/03/12 05:03:07;;;;;;;0.50;0.50;;;;;;;4.62;47.73;95967.69;5025056;28;20158;-59
2023/03/12 05:05:34;;;;;;;0.40;0.40;;;;;;;5.20;47.68;96052.81;5025117;28;20057;-68
2023/03/12 05:08:02;;;;;;;0.50;0.50;;;;;;;5.31;48.41;96062.06;5024792;28;20047;-60
2023/03/12 05:10:29;;;;;;;0.40;0.40;;;;;;;5.24;47.95;96065.44;5025099;28;20496;-66
2023/03/12 05:12:55;;;;;;;0.50;0.50;;;;;;;5.42;47.86;96076.81;5024976;28;20057;-67
2023/03/12 05:15:22;;;;;;;0.40;0.40;;;;;;;5.51;48.25;96064.47;5024617;28;20046;-60
2023/03/12 05:17:49;;;;;;;0.50;0.50;;;;;;;5.68;47.82;96079.69;5024598;28;20315;-69
2023/03/12 05:20:18;;;;;;;0.50;0.50;;;;;;;5.35;48.15;96038.22;5024478;28;20511;-67
2023/03/12 05:22:45;;;;;;;0.50;0.50;;;;;;;5.38;48.35;96037.50;5024446;28;20061;-59
2023/03/12 05:25:11;;;;;;;0.50;0.50;;;;;;;5.53;46.35;96075.06;5024766;28;20103;-59
2023/03/12 05:27:38;;;;;;;0.50;0.50;;;;;;;5.82;46.37;96099.22;5024410;28;20487;-67
2023/03/12 05:30:06;;;;;;;0.50;0.50;;;;;;;5.87;41.36;96087.94;5024749;28;20088;-60
2023/03/12 05:32:32;;;;;;;0.50;0.50;;;;;;;5.96;41.83;96069.28;5018170;28;20104;-67
2023/03/12 05:34:59;;;;;;;0.50;0.50;;;;;;;6.32;45.32;96093.53;5005167;28;20061;-67
2023/03/12 05:37:26;;;;;;;0.50;0.50;;;;;;;6.18;46.38;96082.25;5005177;28;20112;-65
2023/03/12 05:39:53;;;;;;;0.50;0.50;;;;;;;6.44;43.68;96082.31;5004569;28;20066;-59
2023/03/12 05:42:20;;;;;;;0.60;0.60;;;;;;;6.76;43.29;96124.94;4997874;28;20840;-59
2023/03/12 05:44:47;;;;;;;0.60;0.60;;;;;;;6.81;44.22;96121.84;5004507;28;20062;-67
2023/03/12 05:47:13;;;;;;;0.55;0.55;;;;;;;7.05;43.24;96115.94;5004786;28;20298;-66
2023/03/12 05:49:40;;;;;;;0.50;0.50;;;;;;;6.79;42.57;96071.91;5004555;28;20046;-60
2023/03/12 05:52:07;;;;;;;0.60;0.60;;;;;;;7.35;43.22;96136.06;5004615;28;20046;-61
2023/03/12 05:54:33;;;;;;;0.60;0.60;;;;;;;7.40;43.65;96137.72;5004339;28;20054;-59
2023/03/12 05:57:01;;;;;;;0.60;0.60;;;;;;;7.59;43.92;96151.38;5003068;28;20049;-67
2023/03/12 05:59:28;;;;;;;0.50;0.50;;;;;;;7.36;43.37;96071.56;5004956;28;20585;-60
2023/03/12 06:01:56;;;;;;;0.70;0.70;;;;;;;7.91;44.37;96165.56;5018834;28;20054;-59
2023/03/12 06:04:22;;;;;;;0.60;0.60;;;;;;;7.45;44.21;96096.06;5004226;28;20582;-67
2023/03/12 06:06:49;;;;;;;0.60;0.60;;;;;;;7.86;43.15;96119.03;5002855;28;20143;-67
2023/03/12 06:09:16;;;;;;;0.60;0.60;;;;;;;8.14;42.33;96160.75;5003042;28;20479;-59
2023/03/12 06:11:42;;;;;;;0.70;0.70;;;;;;;7.83;40.27;96188.69;5003934;28;20085;-60
2023/03/12 06:14:09;;;;;;;0.60;0.60;;;;;;;8.10;40.75;96187.47;5004475;28;20053;-65
2023/03/12 06:16:35;;;;;;;0.70;0.70;;;;;;;7.75;40.04;96138.19;5003287;28;20428;-61
2023/03/12 06:19:02;;;;;;;0.60;0.60;;;;;;;8.59;40.55;96185.34;5002419;28;20527;-61
2023/03/12 06:21:32;;;;;;;0.65;0.65;;;;;;;8.76;40.48;96193.00;5004400;28;20076;-68
2023/03/12 06:23:59;;;;;;;0.70;0.70;;;;;;;8.79;38.06;96186.72;4995455;28;20546;-66
2023/03/12 06:26:27;;;;;;;0.70;0.70;;;;;;;8.69;36.77;96198.47;4985107;28;20051;-61
2023/03/12 06:28:54;;;;;;;0.73;0.73;;;;;;;8.42;38.02;96150.06;4984713;28;20054;-67
2023/03/12 06:31:22;;;;;;;0.70;0.70;;;;;;;8.88;37.65;96212.06;4984754;28;20057;-67
2023/03/12 06:33:49;;;;;;;0.70;0.70;;;;;;;7.96;40.30;96234.19;5013868;28;20564;-65
2023/03/12 06:36:16;;;;;;;0.60;0.60;;;;;;;7.46;40.58;96219.66;5002830;28;20066;-66
2023/03/12 06:38:43;;;;;;;0.60;0.60;;;;;;;7.64;40.77;96231.78;5002614;28;20054;-59
2023/03/12 06:41:17;;;;;;;0.68;0.68;;;;;;;7.41;39.21;96145.59;5002853;28;20175;-66
2023/03/12 06:43:43;;;;;;;;;;;;;;;7.76;38.94;96233.53;5004502;28;20061;-59
2023/03/12 06:46:14;;;;;;;0.60;0.60;;;;;;;7.34;37.70;96152.97;5004440;28;20462;-65
2023/03/12 06:48:41;;;;;;;0.60;0.60;;;;;;;7.74;38.10;96184.25;5003845;28;20512;-64
2023/03/12 06:51:09;;;;;;;0.70;0.70;;;;;;;8.10;37.37;96242.66;5002276;28;20050;-60
2023/03/12 06:53:36;;;;;;;0.68;0.68;;;;;;;8.20;38.37;96242.00;5003880;28;20054;-60
2023/03/12 06:56:08;;;;;;;0.65;0.65;;;;;;;8.02;38.55;96196.84;5003772;28;20496;-60
2023/03/12 06:58:35;;;;;;;0.70;0.70;;;;;;;7.57;37.62;96148.97;5003489;28;20056;-67
2023/03/12 07:01:01;;;;;;;0.70;0.70;;;;;;;8.20;37.38;96253.03;5003199;28;20080;-66
2023/03/12 07:03:28;;;;;;;0.60;0.60;;;;;;;8.27;37.74;96255.91;5003694;28;20061;-61
2023/03/12 07:05:56;;;;;;;0.70;0.70;;;;;;;8.47;36.55;96249.06;5003551;28;20363;-66
2023/03/12 07:08:24;;;;;;;0.70;0.70;;;;;;;8.24;36.72;96226.31;5005145;28;20075;-60
2023/03/12 07:10:51;;;;;;;0.60;0.60;;;;;;;8.19;36.53;96234.91;5007444;28;20131;-60
2023/03/12 07:13:17;;;;;;;0.70;0.70;;;;;;;8.36;37.19;96259.19;5006910;28;20584;-60
2023/03/12 07:15:45;;;;;;;0.70;0.70;;;;;;;8.17;37.21;96215.94;5007197;28;20057;-61
2023/03/12 07:18:12;;;;;;;0.63;0.63;;;;;;;8.56;36.21;96261.41;5007353;28;20197;-60
2023/03/12 07:20:42;;;;;;;0.70;0.70;;;;;;;8.63;36.82;96250.44;5007264;28;20046;-61
2023/03/12 07:23:09;;;;;;;0.70;0.70;;;;;;;8.57;36.46;96262.19;5007005;28;20053;-62
2023/03/12 07:25:38;;;;;;;0.70;0.70;;;;;;;8.49;35.40;96235.69;5007317;28;20516;-60
2023/03/12 07:28:06;;;;;;;0.70;0.70;;;;;;;8.89;35.34;96264.16;5007403;28;20897;-60
2023/03/12 07:30:33;;;;;;;0.70;0.70;;;;;;;8.88;35.07;96228.63;5007040;28;20045;-61
2023/03/12 07:33:05;;;;;;;0.77;0.77;;;;;;;8.73;36.26;96252.53;5021632;28;20058;-60
2023/03/12 07:35:32;;;;;;;0.70;0.70;;;;;;;8.78;36.38;96284.53;5006768;28;20057;-59
2023/03/12 07:38:00;;;;;;;0.70;0.70;;;;;;;8.43;35.57;96273.06;5005400;28;20057;-59
2023/03/12 07:40:28;;;;;;;0.80;0.80;;;;;;;8.78;36.21;96273.50;5004970;28;20065;-67
2023/03/12 07:42:54;;;;;;;0.80;0.80;;;;;;;8.74;37.28;96264.38;5007169;28;20061;-60
2023/03/12 07:45:21;;;;;;;0.80;0.80;;;;;;;8.96;36.54;96280.00;5006464;28;20124;-64
2023/03/12 07:47:48;;;;;;;0.70;0.70;;;;;;;8.88;36.29;96272.81;5005900;28;20199;-59
2023/03/12 07:50:16;;;;;;;0.70;0.70;;;;;;;8.74;35.80;96267.16;5005060;28;20088;-60
2023/03/12 07:52:44;;;;;;;0.70;0.70;;;;;;;8.75;36.23;96243.88;5007035;28;20058;-66
2023/03/12 07:55:11;;;;;;;0.80;0.80;;;;;;;8.81;35.46;96268.00;5005702;28;20137;-65
2023/03/12 07:57:38;;;;;;;0.70;0.70;;;;;;;8.40;36.00;96229.66;5006606;28;20056;-59
2023/03/12 08:00:07;;;;;;;0.70;0.70;;;;;;;8.88;35.60;96345.41;5006657;28;20046;-65
2023/03/12 08:02:34;;;;;;;0.70;0.70;;;;;;;9.01;35.83;96290.69;5021142;28;20066;-59
2023/03/12 08:05:01;;;;;;;0.80;0.80;;;;;;;9.27;35.83;96296.13;5005407;28;20050;-65
2023/03/12 08:07:31;;;;;;;0.80;0.80;;;;;;;9.21;34.99;96281.84;5021014;28;20057;-65
2023/03/12 08:09:58;;;;;;;0.80;0.80;;;;;;;9.55;34.78;96298.38;5006020;28;20527;-65
2023/03/12 08:12:26;;;;;;;0.90;0.90;;;;;;;9.48;36.15;96310.16;5006283;28;20076;-60
2023/03/12 08:14:52;;;;;;;0.70;0.70;;;;;;;8.91;35.29;96296.91;5006146;28;20080;-60
2023/03/12 08:17:19;;;;;;;0.63;0.63;;;;;;;9.12;36.37;96305.41;5004679;28;20061;-66
2023/03/12 08:19:46;;;;;;;0.80;0.80;;;;;;;9.46;35.53;96298.66;5004400;28;20062;-60
2023/03/12 08:22:13;;;;;;;0.73;0.73;;;;;;;9.74;35.57;96298.91;5006459;28;20057;-60
2023/03/12 08:24:39;;;;;;;0.80;0.80;;;;;;;9.86;34.33;96251.59;5005643;28;20058;-59
2023/03/12 08:27:06;;;;;;;0.85;0.85;;;;;;;10.45;33.67;96289.13;5005755;28;20425;-60
2023/03/12 08:29:33;;;;;;;0.80;0.80;;;;;;;10.38;34.77;96305.72;5003815;28;20516;-65
2023/03/12 08:32:00;;;;;;;0.80;0.80;;;;;;;10.07;33.79;96251.75;5006001;28;20080;-60
2023/03/12 08:34:34;;;;;;;0.90;0.90;;;;;;;10.14;33.97;96278.66;5004403;28;20054;-66
2023/03/12 08:37:01;;;;;;;0.80;0.80;;;;;;;10.23;33.82;96293.75;5006102;28;20859;-65
2023/03/12 08:39:28;;;;;;;0.80;0.80;;;;;;;10.41;33.13;96294.66;5004320;28;20061;-66
2023/03/12 08:41:55;;;;;;;0.80;0.80;;;;;;;10.52;33.42;96301.06;5020700;28;20697;-59
2023/03/12 08:44:24;;;;;;;0.80;0.80;;;;;;;10.72;33.36;96303.53;5004059;28;20058;-66
2023/03/12 08:46:51;;;;;;;0.80;0.80;;;;;;;10.24;33.17;96251.06;5005925;28;20107;-62
2023/03/12 08:49:21;;;;;;;0.85;0.85;;;;;;;10.31;33.13;96239.22;5005482;28;20058;-65
2023/03/12 08:51:48;;;;;;;0.90;0.90;;;;;;;10.98;33.35;96311.53;5006012;28;20332;-67
2023/03/12 08:54:15;;;;;;;0.80;0.80;;;;;;;11.16;33.37;96312.38;5003620;28;20608;-61
2023/03/12 08:56:42;;;;;;;0.90;0.90;;;;;;;11.04;34.28;96309.94;5005432;28;20116;-67
2023/03/12 08:59:10;;;;;;;0.90;0.90;;;;;;;11.04;33.13;96304.41;5005603;28;20205;-59
2023/03/12 09:01:37;;;;;;;0.90;0.90;;;;;;;10.87;33.34;96316.22;5004975;28;20050;-59
2023/03/12 09:04:04;;;;;;;0.90;0.90;;;;;;;10.93;33.57;96320.22;5004590;28;20085;-65
2023/03/12 09:06:34;;;;;;;0.85;0.85;;;;;;;10.47;33.03;96248.81;5003932;28;20046;-65
2023/03/12 09:09:03;;;;;;;0.82;0.82;;;;;;;10.73;33.33;96294.81;5003890;28;20365;-65
2023/03/12 09:11:32;;;;;;;0.90;0.90;;;;;;;10.46;32.85;96261.03;5003442;28;20042;-59
2023/03/12 09:14:00;;;;;;;0.80;0.80;;;;;;;11.13;32.87;96313.94;5003755;28;20053;-64
2023/03/12 09:16:47;;;;;;;1.00;1.00;;;;;;;11.20;32.62;96313.19;5002076;28;20054;-59
2023/03/12 09:19:14;;;;;;;1.00;1.00;;;;;;;11.49;32.15;96317.59;5004068;28;20225;-65
2023/03/12 09:21:40;;;;;;;0.90;0.90;;;;;;;11.65;32.64;96321.59;5002943;28;20105;-65
2023/03/12 09:24:08;;;;;;;1.00;1.00;;;;;;;11.33;32.41;96268.06;5003278;28;20058;-65
2023/03/12 09:26:35;;;;;;;1.00;1.00;;;;;;;11.92;32.84;96316.47;5003445;28;20424;-65
2023/03/12 09:29:02;;;;;;;1.00;1.00;;;;;;;12.26;33.39;96314.88;5004678;28;20061;-60
2023/03/12 09:31:28;;;;;;;0.90;0.90;;;;;;;12.50;33.00;96294.59;5004505;28;20759;-59
2023/03/12 09:33:55;;;;;;;1.00;1.00;;;;;;;12.30;34.66;96310.09;5005048;28;20120;-60
2023/03/12 09:36:22;;;;;;;1.00;1.00;;;;;;;12.39;34.62;96313.28;5004640;28;20642;-60
2023/03/12 09:38:48;;;;;;;1.00;1.00;;;;;;;11.79;33.04;96324.38;5004987;28;20050;-61
2023/03/12 09:41:22;;;;;;;1.00;1.00;;;;;;;11.70;34.22;96321.22;5004501;28;20783;-66
2023/03/12 09:43:58;;;;;;;0.90;0.90;;;;;;;10.82;35.23;96324.91;5004777;28;20061;-68
2023/03/12 09:46:40;;;;;;;0.90;0.90;;;;;;;10.76;35.67;96326.47;5004590;28;20056;-62
2023/03/12 09:49:21;;;;;;;0.80;0.80;;;;;;;10.22;36.27;96330.94;5003066;28;20057;-67
2023/03/12 09:51:52;;;;;;;0.70;0.70;;;;;;;9.84;36.97;96331.41;5003083;28;20050;-61
2023/03/12 09:54:40;;;;;;;0.80;0.80;;;;;;;10.11;37.53;96352.19;5019420;28;20104;-67
2023/03/12 09:57:23;;;;;;;0.80;0.80;;;;;;;9.95;36.90;96282.47;5003955;28;20061;-60
2023/03/12 09:59:51;;;;;;;0.80;0.80;;;;;;;10.30;37.12;96340.06;5002865;28;20123;-61
2023/03/12 10:02:36;;;;;;;0.80;0.80;;;;;;;9.91;36.42;96336.97;5004018;28;20058;-66
2023/03/12 10:05:33;;;;;;;0.80;0.80;;;;;;;10.29;38.45;96341.25;5004285;28;20081;-67
2023/03/12 10:08:04;;;;;;;0.80;0.80;;;;;;;10.22;37.64;96353.06;5004429;28;20088;-67
2023/03/12 10:11:11;;;;;;;0.80;0.80;;;;;;;10.09;36.60;96349.00;5004281;28;20061;-61
2023/03/12 10:14:16;;;;;;;0.90;0.90;;;;;;;10.66;36.79;96339.88;5004284;28;20241;-66
2023/03/12 10:17:20;;;;;;;0.80;0.80;;;;;;;10.58;36.60;96352.09;5003965;28;20281;-60
2023/03/12 10:20:04;;;;;;;0.90;0.90;;;;;;;11.23;35.62;96352.00;5004418;28;20136;-61
2023/03/12 10:22:45;;;;;;;0.90;0.90;;;;;;;10.43;36.96;96303.34;5004240;28;20056;-67
2023/03/12 10:25:45;;;;;;;0.90;0.90;;;;;;;10.66;37.34;96356.50;5002726;28;20120;-67
2023/03/12 10:28:19;;;;;;;0.90;0.90;;;;;;;10.86;36.60;96353.44;4990697;28;20058;-67
2023/03/12 10:30:53;;;;;;;0.95;0.95;;;;;;;11.32;36.51;96365.47;5004700;28;20559;-67
2023/03/12 10:33:22;;;;;;;0.90;0.90;;;;;;;10.10;36.87;96277.88;5018678;28;20056;-64
2023/03/12 10:35:50;;;;;;;0.90;0.90;;;;;;;10.73;36.86;96360.50;5004035;28;20563;-60
2023/03/12 10:38:25;;;;;;;0.80;0.80;;;;;;;10.57;36.29;96366.34;5002335;28;20054;-66
2023/03/12 10:40:52;;;;;;;0.90;0.90;;;;;;;10.84;36.56;96355.78;5003945;28;20069;-60
2023/03/12 10:43:19;;;;;;;0.90;0.90;;;;;;;10.83;36.25;96343.91;5005675;28;20083;-67
2023/03/12 10:46:10;;;;;;;0.90;0.90;;;;;;;10.76;36.68;96377.13;5007739;28;20077;-65
2023/03/12 10:48:37;;;;;;;0.90;0.90;;;;;;;10.56;37.77;96373.84;5007790;28;20127;-66
2023/03/12 10:51:10;;;;;;;0.80;0.80;;;;;;;10.34;37.00;96372.13;5007981;28;20049;-61
2023/03/12 10:53:43;;;;;;;0.80;0.80;;;;;;;10.46;37.95;96352.41;5008000;28;20054;-61
2023/03/12 10:56:15;;;;;;;0.80;0.80;;;;;;;10.72;37.41;96348.59;5007508;28;20062;-67
2023/03/12 10:58:52;;;;;;;0.90;0.90;;;;;;;11.36;36.80;96366.28;4989713;28;20054;-60
2023/03/12 11:01:30;;;;;;;1.00;1.00;;;;;;;10.93;36.90;96353.47;4987911;28;20078;-66
2023/03/12 11:04:22;;;;;;;0.90;0.90;;;;;;;11.32;36.37;96360.72;5002248;28;20505;-66
2023/03/12 11:07:13;;;;;;;0.90;0.90;;;;;;;10.73;37.13;96367.59;4987651;28;20108;-66
2023/03/12 11:09:40;;;;;;;0.82;0.82;;;;;;;10.90;36.91;96304.38;4987703;28;20480;-61
2023/03/12 11:12:30;;;;;;;0.90;0.90;;;;;;;11.61;35.36;96283.94;4987786;28;20058;-65
2023/03/12 11:14:57;;;;;;;0.90;0.90;;;;;;;11.25;34.73;96291.44;4987279;28;20090;-67
2023/03/12 11:17:27;;;;;;;1.00;1.00;;;;;;;10.91;35.50;96328.13;4987973;28;20108;-66
2023/03/12 11:19:54;;;;;;;0.90;0.90;;;;;;;11.43;35.56;96311.66;4988090;28;20054;-65
2023/03/12 11:22:34;;;;;;;1.08;1.08;;;;;;;11.27;34.72;96299.34;5002474;28;20054;-59
2023/03/12 11:25:05;;;;;;;0.98;0.98;;;;;;;11.10;35.54;96313.94;5002129;28;20065;-66
2023/03/12 11:27:42;;;;;;;1.00;1.00;;;;;;;10.73;38.00;96371.56;4987552;28;20062;-66
2023/03/12 11:30:14;;;;;;;0.80;0.80;;;;;;;9.99;37.32;96288.81;4987278;28;20108;-60
2023/03/12 11:32:44;;;;;;;0.80;0.80;;;;;;;10.29;38.69;96374.47;4988551;28;20549;-67
2023/03/12 11:35:14;;;;;;;0.90;0.90;;;;;;;10.24;37.75;96367.28;5007087;28;20133;-66
2023/03/12 11:37:50;;;;;;;0.80;0.80;;;;;;;10.24;37.89;96374.81;5006944;28;20053;-66
2023/03/12 11:40:16;;;;;;;0.80;0.80;;;;;;;10.62;37.96;96377.84;5006431;28;20066;-65
2023/03/12 11:43:12;;;;;;;0.80;0.80;;;;;;;11.08;38.47;96380.06;5006821;28;20112;-66
2023/03/12 11:46:24;;;;;;;0.90;0.90;;;;;;;11.25;38.28;96380.13;5004204;28;20054;-61
2023/03/12 11:49:12;;;;;;;0.90;0.90;;;;;;;11.02;37.14;96381.63;5006158;28;20061;-65
2023/03/12 11:51:59;;;;;;;0.90;0.90;;;;;;;10.83;37.53;96381.94;5006214;28;20505;-60